Terminal Aerodrome Forecast
Issued by NWS

Home | Current Version | Previous Version | Text Only | Print | Product List | Glossary On
Versions: 1 2 3 4 5 6 7 8 9 10 11 12 13 14 15 16 17 18 19 20 21 22 23 24 25 26 27
000
FTUS43 KDMX 020542
TAFFOD
TAF
KFOD 020542Z 0206/0306 28004KT P6SM SKC
     FM021500 14005KT P6SM BKN080
     FM021900 16011G15KT P6SM FEW025 BKN060
     FM030100 14014KT P6SM BKN035 OVC050=

USA.gov is the U.S. government's official web portal to all federal, state and local government web resources and services.